createdAt,value
2019-03-13T00:00:26.146Z,93.00
2019-03-13T00:02:58.398Z,93.00
2019-03-13T00:05:28.905Z,93.10
2019-03-13T00:07:59.318Z,93.00
2019-03-13T00:10:32.418Z,93.10
2019-03-13T00:13:01.741Z,93.10
2019-03-13T00:15:34.625Z,93.10
2019-03-13T00:18:04.999Z,92.90
2019-03-13T00:20:35.332Z,93.00
2019-03-13T00:23:05.726Z,93.00
2019-03-13T00:25:37.550Z,93.00
2019-03-13T00:28:07.874Z,93.10
2019-03-13T00:30:38.202Z,93.00
2019-03-13T00:33:08.602Z,93.10
2019-03-13T00:35:38.910Z,93.10
2019-03-13T00:38:09.286Z,93.20
2019-03-13T00:40:39.612Z,93.20
2019-03-13T00:43:09.971Z,93.20
2019-03-13T00:45:40.309Z,93.20
2019-03-13T00:48:11.702Z,93.20
2019-03-13T00:50:42.074Z,93.20
2019-03-13T00:53:12.468Z,93.30
2019-03-13T00:55:44.207Z,93.30
2019-03-13T00:58:14.583Z,93.30
2019-03-13T01:00:53.615Z,93.20
2019-03-13T01:03:40.760Z,93.20
2019-03-13T01:06:15.740Z,93.30
2019-03-13T01:08:46.109Z,93.40
2019-03-13T01:11:16.661Z,93.40
2019-03-13T01:13:47.025Z,93.30
2019-03-13T01:16:17.430Z,93.40
2019-03-13T01:18:47.784Z,93.30
2019-03-13T01:21:18.550Z,93.40
2019-03-13T01:23:48.872Z,93.40
2019-03-13T01:26:19.244Z,93.50
2019-03-13T01:28:49.586Z,93.30
2019-03-13T01:31:37.517Z,93.20
2019-03-13T01:34:25.802Z,93.30
2019-03-13T01:36:59.838Z,93.20
2019-03-13T01:39:30.185Z,93.40
2019-03-13T01:42:00.563Z,93.20
2019-03-13T01:44:30.909Z,93.30
2019-03-13T01:47:01.278Z,93.30
2019-03-13T01:49:31.654Z,93.40
2019-03-13T01:52:02.008Z,93.30
2019-03-13T01:54:32.345Z,93.30
2019-03-13T01:57:02.737Z,93.20
2019-03-13T01:59:33.068Z,93.10
2019-03-13T02:02:03.466Z,93.10
2019-03-13T02:04:33.779Z,92.90
2019-03-13T02:07:04.240Z,92.90
2019-03-13T02:09:34.584Z,92.90
2019-03-13T02:12:04.982Z,92.90
2019-03-13T02:14:36.344Z,92.80
2019-03-13T02:17:06.674Z,92.80
2019-03-13T02:19:37.054Z,92.80
2019-03-13T02:22:07.702Z,92.80
2019-03-13T02:24:38.046Z,92.60
2019-03-13T02:27:08.375Z,92.40
2019-03-13T02:29:38.686Z,92.50
2019-03-13T02:32:09.115Z,92.20
2019-03-13T02:34:39.488Z,92.30
2019-03-13T02:37:09.800Z,92.20
2019-03-13T02:39:40.126Z,92.10
2019-03-13T02:42:10.472Z,92.10
2019-03-13T02:44:41.397Z,92.10
2019-03-13T02:47:11.735Z,92.10
2019-03-13T02:49:42.087Z,92.10
2019-03-13T02:52:12.415Z,92.00
2019-03-13T02:54:42.749Z,92.00
2019-03-13T02:57:13.101Z,92.00
2019-03-13T02:59:43.471Z,92.00
2019-03-13T03:02:32.515Z,91.90
2019-03-13T03:05:03.286Z,91.90
2019-03-13T03:07:33.706Z,91.90
2019-03-13T03:10:04.177Z,92.00
2019-03-13T03:12:35.613Z,91.80
2019-03-13T03:15:11.644Z,91.70
2019-03-13T03:17:42.006Z,91.70
2019-03-13T03:20:14.763Z,91.70
2019-03-13T03:22:45.178Z,91.70
2019-03-13T03:25:15.621Z,91.60
2019-03-13T03:27:46.002Z,91.50
2019-03-13T03:30:21.171Z,91.80
2019-03-13T03:32:54.470Z,91.40
2019-03-13T03:35:24.808Z,91.30
2019-03-13T03:37:57.281Z,91.40
2019-03-13T03:40:27.593Z,91.20
2019-03-13T03:42:57.880Z,91.10
2019-03-13T03:45:28.233Z,91.10
2019-03-13T03:47:58.545Z,91.00
2019-03-13T03:50:28.874Z,90.90
2019-03-13T03:53:00.237Z,91.00
2019-03-13T03:55:30.570Z,90.90
2019-03-13T03:58:02.165Z,91.10
2019-03-13T04:00:32.449Z,90.90
2019-03-13T04:03:02.769Z,90.80
2019-03-13T04:05:33.081Z,90.80
2019-03-13T04:08:03.390Z,90.80
2019-03-13T04:10:33.719Z,90.90
2019-03-13T04:13:04.055Z,90.80
2019-03-13T04:15:34.369Z,90.70
2019-03-13T04:18:04.661Z,90.80
2019-03-13T04:20:35.077Z,90.80
2019-03-13T04:23:05.398Z,90.90
2019-03-13T04:25:36.878Z,90.50
2019-03-13T04:28:07.662Z,90.50
2019-03-13T04:30:37.993Z,90.40
2019-03-13T04:33:08.365Z,90.10
2019-03-13T04:35:38.706Z,90.00
2019-03-13T04:38:09.073Z,90.20
2019-03-13T04:40:39.359Z,90.00
2019-03-13T04:43:09.663Z,90.00
2019-03-13T04:45:40.005Z,90.10
2019-03-13T04:48:10.317Z,89.50
2019-03-13T04:50:40.936Z,89.40
2019-03-13T04:53:11.285Z,89.30
2019-03-13T04:55:41.625Z,88.80
2019-03-13T04:58:13.627Z,88.70
2019-03-13T05:00:43.949Z,88.40
2019-03-13T05:03:14.303Z,88.60
2019-03-13T05:05:49.123Z,88.20
2019-03-13T05:08:26.287Z,87.70
2019-03-13T05:10:59.549Z,86.70
2019-03-13T05:13:29.885Z,85.50
2019-03-13T05:16:01.293Z,85.20
2019-03-13T05:18:31.615Z,85.00
2019-03-13T05:21:01.928Z,84.60
2019-03-13T05:23:32.282Z,84.00
2019-03-13T05:26:02.611Z,83.40
2019-03-13T05:28:34.174Z,82.50
2019-03-13T05:31:04.487Z,82.30
2019-03-13T05:33:34.814Z,82.10
2019-03-13T05:36:05.169Z,81.90
2019-03-13T05:38:35.520Z,81.40
2019-03-13T05:41:05.925Z,81.50
2019-03-13T05:43:36.222Z,81.40
2019-03-13T05:46:06.573Z,79.10
2019-03-13T05:48:36.911Z,79.70
2019-03-13T05:51:07.240Z,78.80
2019-03-13T05:53:37.551Z,78.60
2019-03-13T05:56:08.532Z,77.70
2019-03-13T05:58:40.148Z,77.10
2019-03-13T06:01:10.466Z,76.50
2019-03-13T06:03:40.878Z,75.40
2019-03-13T06:06:11.299Z,74.60
2019-03-13T06:08:41.950Z,74.70
2019-03-13T06:11:12.206Z,74.10
2019-03-13T06:13:43.581Z,73.80
2019-03-13T06:16:14.675Z,73.60
2019-03-13T06:18:45.049Z,73.50
2019-03-13T06:21:15.429Z,72.80
2019-03-13T06:23:48.003Z,72.40
2019-03-13T06:26:17.797Z,72.40
2019-03-13T06:29:03.548Z,71.40
2019-03-13T06:31:33.907Z,71.20
2019-03-13T06:34:04.224Z,70.70
2019-03-13T06:36:34.625Z,70.80
2019-03-13T06:39:07.104Z,70.20
2019-03-13T06:41:37.475Z,70.10
2019-03-13T06:44:07.809Z,69.50
2019-03-13T06:46:38.166Z,68.70
2019-03-13T06:49:08.582Z,68.80
2019-03-13T06:51:38.876Z,68.60
2019-03-13T06:54:09.202Z,67.90
2019-03-13T06:56:39.729Z,67.60
2019-03-13T06:59:27.641Z,67.20
2019-03-13T07:02:22.915Z,67.30
2019-03-13T07:05:18.059Z,67.00
2019-03-13T07:08:07.342Z,66.20
2019-03-13T07:10:42.889Z,65.50
2019-03-13T07:13:30.825Z,65.00
2019-03-13T07:16:22.877Z,65.30
2019-03-13T07:19:11.173Z,64.60
2019-03-13T07:21:51.059Z,64.90
2019-03-13T07:24:35.245Z,65.20
2019-03-13T07:27:11.987Z,66.00
2019-03-13T07:29:53.425Z,64.60
2019-03-13T07:32:39.904Z,64.90
2019-03-13T07:35:29.209Z,64.60
2019-03-13T07:38:16.014Z,64.90
2019-03-13T07:41:11.805Z,64.70
2019-03-13T07:44:01.329Z,64.50
2019-03-13T07:46:49.555Z,64.20
2019-03-13T07:49:33.535Z,63.90
2019-03-13T07:52:35.065Z,63.30
2019-03-13T07:55:16.096Z,63.40
2019-03-13T07:58:05.485Z,63.10
2019-03-13T08:00:58.037Z,63.70
2019-03-13T08:03:56.447Z,63.90
2019-03-13T08:06:41.358Z,63.10
2019-03-13T08:09:18.001Z,63.30
2019-03-13T08:11:55.729Z,63.30
2019-03-13T08:14:37.223Z,63.40
2019-03-13T08:17:38.529Z,63.50
2019-03-13T08:20:40.745Z,63.80
2019-03-13T08:23:23.028Z,63.90
2019-03-13T08:26:05.572Z,64.20
2019-03-13T08:29:13.193Z,63.40
2019-03-13T08:31:53.583Z,63.00
2019-03-13T08:34:52.255Z,62.80
2019-03-13T08:37:31.923Z,62.80
2019-03-13T08:40:14.673Z,62.90
2019-03-13T08:43:04.728Z,62.40
2019-03-13T08:45:56.816Z,62.20
2019-03-13T08:48:44.400Z,62.00
2019-03-13T08:51:31.989Z,62.10
2019-03-13T08:54:12.895Z,61.60
2019-03-13T08:56:53.001Z,62.20
2019-03-13T08:59:38.232Z,62.20
2019-03-13T09:02:17.688Z,62.40
2019-03-13T09:05:00.584Z,62.20
2019-03-13T09:07:59.013Z,62.80
2019-03-13T09:11:00.532Z,62.90
2019-03-13T09:13:35.997Z,62.80
2019-03-13T09:16:14.270Z,62.70
2019-03-13T09:18:59.889Z,63.20
2019-03-13T09:21:49.153Z,63.00
2019-03-13T09:24:24.588Z,63.10
2019-03-13T09:27:14.461Z,63.70
2019-03-13T09:30:02.365Z,64.20
2019-03-13T09:33:02.977Z,67.30
2019-03-13T09:36:11.837Z,69.50
2019-03-13T09:38:47.936Z,71.30
2019-03-13T09:41:43.565Z,72.20
2019-03-13T09:44:32.798Z,72.50
2019-03-13T09:47:17.093Z,72.10
2019-03-13T09:49:56.490Z,71.50
2019-03-13T09:52:51.865Z,71.30
2019-03-13T09:55:31.397Z,70.90
2019-03-13T09:58:26.707Z,70.20
2019-03-13T10:01:18.844Z,68.20
2019-03-13T10:04:04.486Z,66.90
2019-03-13T10:06:52.645Z,66.60
2019-03-13T10:09:34.935Z,66.50
2019-03-13T10:12:33.086Z,68.10
2019-03-13T10:15:25.383Z,70.10
2019-03-13T10:18:20.529Z,70.60
2019-03-13T10:21:17.253Z,71.40
2019-03-13T10:23:54.077Z,73.10
2019-03-13T10:26:35.260Z,74.50
2019-03-13T10:29:23.164Z,75.60
2019-03-13T10:32:03.212Z,77.00
2019-03-13T10:34:47.463Z,78.60
2019-03-13T10:37:35.625Z,80.80
2019-03-13T10:40:18.427Z,82.90
2019-03-13T10:43:04.132Z,84.90
2019-03-13T10:45:43.057Z,85.80
2019-03-13T10:48:28.779Z,87.00
2019-03-13T10:51:26.499Z,87.60
2019-03-13T10:54:10.997Z,88.50
2019-03-13T10:57:03.262Z,89.20
2019-03-13T10:59:40.520Z,89.60
2019-03-13T11:02:23.903Z,90.00
2019-03-13T11:05:17.922Z,89.90
2019-03-13T11:08:03.891Z,90.00
2019-03-13T11:10:39.770Z,90.00
2019-03-13T11:13:20.863Z,90.10
2019-03-13T11:16:22.209Z,90.10
2019-03-13T11:19:10.185Z,90.10
2019-03-13T11:22:05.330Z,90.30
2019-03-13T11:24:54.600Z,90.20
2019-03-13T11:27:49.718Z,90.10
2019-03-13T11:30:32.493Z,90.40
2019-03-13T11:33:15.856Z,90.00
2019-03-13T11:36:01.543Z,89.90
2019-03-13T11:38:55.122Z,90.00
2019-03-13T11:41:41.339Z,90.00
2019-03-13T11:44:28.677Z,89.90
2019-03-13T11:47:13.233Z,89.90
2019-03-13T11:50:02.487Z,90.10
2019-03-13T11:52:52.551Z,90.50
2019-03-13T11:55:44.618Z,90.10
2019-03-13T11:58:38.513Z,90.10
2019-03-13T12:01:29.972Z,90.10
2019-03-13T12:04:18.669Z,90.20
2019-03-13T12:07:20.357Z,90.10
2019-03-13T12:10:08.223Z,89.90
2019-03-13T12:12:56.769Z,90.10
2019-03-13T12:15:36.293Z,89.80
2019-03-13T12:18:32.031Z,90.10
2019-03-13T12:21:24.427Z,90.20
2019-03-13T12:24:15.552Z,90.30
2019-03-13T12:26:53.887Z,90.40
2019-03-13T12:29:42.029Z,90.50
2019-03-13T12:32:22.040Z,90.60
2019-03-13T12:35:04.042Z,90.60
2019-03-13T12:37:48.233Z,90.60
2019-03-13T12:40:46.751Z,90.70
2019-03-13T12:43:41.877Z,90.20
2019-03-13T12:46:24.255Z,90.10
2019-03-13T12:49:05.205Z,90.10
2019-03-13T12:51:48.237Z,90.10
2019-03-13T12:54:36.625Z,90.10
2019-03-13T12:57:20.095Z,90.10
2019-03-13T13:00:18.223Z,89.90
2019-03-13T13:03:05.282Z,89.60
2019-03-13T13:05:53.529Z,89.30
2019-03-13T13:09:01.116Z,88.50
2019-03-13T13:11:50.889Z,88.00
2019-03-13T13:14:39.161Z,86.60
2019-03-13T13:17:34.368Z,85.90
2019-03-13T13:20:05.489Z,85.60
2019-03-13T13:22:35.846Z,85.10
2019-03-13T13:25:07.537Z,84.40
2019-03-13T13:27:37.849Z,84.10
2019-03-13T13:30:10.103Z,84.00
2019-03-13T13:32:40.521Z,83.40
2019-03-13T13:35:11.005Z,83.20
2019-03-13T13:37:41.859Z,82.20
2019-03-13T13:40:12.347Z,82.10
2019-03-13T13:42:42.677Z,81.90
2019-03-13T13:45:39.237Z,81.50
2019-03-13T13:48:09.589Z,81.80
2019-03-13T13:50:40.012Z,82.60
2019-03-13T13:53:10.321Z,82.20
2019-03-13T13:55:41.768Z,80.90
2019-03-13T13:58:12.177Z,79.20
2019-03-13T14:01:01.609Z,79.70
2019-03-13T14:03:31.936Z,79.60
2019-03-13T14:06:02.318Z,78.00
2019-03-13T14:08:33.671Z,77.30
2019-03-13T14:11:05.666Z,76.90
2019-03-13T14:13:36.503Z,74.80
2019-03-13T14:16:06.890Z,74.30
2019-03-13T14:18:37.261Z,73.40
2019-03-13T14:21:09.694Z,72.40
2019-03-13T14:23:40.550Z,72.70
2019-03-13T14:26:10.899Z,70.80
2019-03-13T14:28:41.913Z,71.30
2019-03-13T14:31:12.279Z,70.20
2019-03-13T14:33:43.013Z,70.10
2019-03-13T14:36:17.583Z,69.10
2019-03-13T14:38:47.938Z,67.20
2019-03-13T14:41:19.701Z,67.80
2019-03-13T14:43:51.813Z,67.70
2019-03-13T14:46:24.085Z,67.40
2019-03-13T14:48:54.212Z,67.40
2019-03-13T14:51:25.089Z,67.00
2019-03-13T14:53:55.531Z,67.80
2019-03-13T14:56:26.789Z,67.80
2019-03-13T14:58:57.219Z,68.00
2019-03-13T15:01:32.115Z,68.20
2019-03-13T15:04:04.138Z,68.50
2019-03-13T15:06:34.701Z,69.10
2019-03-13T15:09:06.466Z,69.70
2019-03-13T15:11:38.827Z,70.00
2019-03-13T15:14:09.529Z,70.80
2019-03-13T15:16:40.525Z,69.70
2019-03-13T15:19:11.568Z,69.10
2019-03-13T15:21:41.881Z,69.40
2019-03-13T15:24:12.301Z,69.30
2019-03-13T15:26:42.689Z,69.10
2019-03-13T15:29:13.005Z,69.60
2019-03-13T15:31:43.313Z,70.00
2019-03-13T15:34:13.666Z,70.60
2019-03-13T15:36:43.950Z,70.80
2019-03-13T15:39:14.277Z,71.20
2019-03-13T15:41:44.851Z,71.40
2019-03-13T15:44:15.129Z,71.50
2019-03-13T15:46:45.458Z,72.00
2019-03-13T15:49:15.885Z,72.20
2019-03-13T15:51:46.299Z,72.40
2019-03-13T15:54:16.669Z,72.70
2019-03-13T15:56:47.095Z,72.80
2019-03-13T15:59:17.473Z,73.00
2019-03-13T16:01:47.801Z,73.20
2019-03-13T16:04:18.142Z,73.30
2019-03-13T16:06:48.526Z,73.70
2019-03-13T16:09:19.010Z,73.70
2019-03-13T16:11:50.706Z,72.80
2019-03-13T16:14:21.126Z,72.80
2019-03-13T16:16:51.446Z,72.30
2019-03-13T16:19:21.849Z,72.00
2019-03-13T16:21:52.271Z,72.20
2019-03-13T16:24:22.635Z,72.20
2019-03-13T16:26:53.025Z,72.10
2019-03-13T16:29:23.313Z,72.30
2019-03-13T16:31:53.674Z,72.50
2019-03-13T16:34:24.055Z,72.20
2019-03-13T16:36:54.465Z,72.20
2019-03-13T16:39:24.795Z,71.90
2019-03-13T16:41:55.607Z,72.00
2019-03-13T16:44:25.925Z,71.70
2019-03-13T16:46:57.713Z,72.00
2019-03-13T16:49:28.021Z,73.10
2019-03-13T16:51:58.417Z,72.40
2019-03-13T16:54:28.805Z,72.20
2019-03-13T16:57:00.244Z,72.10
2019-03-13T16:59:30.527Z,72.40
2019-03-13T17:02:00.856Z,72.30
2019-03-13T17:04:31.279Z,72.70
2019-03-13T17:07:01.663Z,73.30
2019-03-13T17:09:32.041Z,73.60
2019-03-13T17:12:02.498Z,74.20
2019-03-13T17:14:32.928Z,74.30
2019-03-13T17:17:03.317Z,74.70
2019-03-13T17:19:33.701Z,74.80
2019-03-13T17:22:04.073Z,74.90
2019-03-13T17:24:34.475Z,75.10
2019-03-13T17:27:04.877Z,75.30
2019-03-13T17:29:39.563Z,75.70
2019-03-13T17:32:09.894Z,75.80
2019-03-13T17:34:40.321Z,77.10
2019-03-13T17:37:10.645Z,76.50
2019-03-13T17:39:40.969Z,76.80
2019-03-13T17:42:12.955Z,76.80
2019-03-13T17:44:43.329Z,76.80
2019-03-13T17:47:13.739Z,76.90
2019-03-13T17:49:44.132Z,77.10
2019-03-13T17:52:14.509Z,77.30
2019-03-13T17:54:44.829Z,77.60
2019-03-13T17:57:15.254Z,77.80
2019-03-13T17:59:45.615Z,78.00
2019-03-13T18:02:15.999Z,78.20
2019-03-13T18:04:46.365Z,78.30
2019-03-13T18:07:16.675Z,78.40
2019-03-13T18:09:48.097Z,78.90
2019-03-13T18:12:19.582Z,78.60
2019-03-13T18:14:49.921Z,78.70
2019-03-13T18:17:20.231Z,78.90
2019-03-13T18:19:50.535Z,78.80
2019-03-13T18:22:20.883Z,78.90
2019-03-13T18:24:51.207Z,78.90
2019-03-13T18:27:21.551Z,79.10
2019-03-13T18:29:51.853Z,79.10
2019-03-13T18:32:22.196Z,79.20
2019-03-13T18:34:52.573Z,79.40
2019-03-13T18:37:22.981Z,79.50
2019-03-13T18:39:53.324Z,79.70
2019-03-13T18:42:24.354Z,79.80
2019-03-13T18:44:54.709Z,80.00
2019-03-13T18:47:25.037Z,80.20
2019-03-13T18:49:55.375Z,80.30
2019-03-13T18:52:25.781Z,80.50
2019-03-13T18:54:56.124Z,81.60
2019-03-13T18:57:26.543Z,81.00
2019-03-13T18:59:57.909Z,81.10
2019-03-13T19:02:28.212Z,81.10
2019-03-13T19:04:58.563Z,81.30
2019-03-13T19:07:28.951Z,81.70
2019-03-13T19:09:59.303Z,81.70
2019-03-13T19:12:30.190Z,82.00
2019-03-13T19:15:00.625Z,82.30
2019-03-13T19:17:31.995Z,82.50
2019-03-13T19:20:02.351Z,82.60
2019-03-13T19:22:32.815Z,82.70
2019-03-13T19:25:03.496Z,82.90
2019-03-13T19:27:33.806Z,83.20
2019-03-13T19:30:04.534Z,83.40
2019-03-13T19:32:35.265Z,83.50
2019-03-13T19:35:05.885Z,83.60
2019-03-13T19:37:43.184Z,83.80
2019-03-13T19:40:14.671Z,84.00
2019-03-13T19:42:45.760Z,84.50
2019-03-13T19:45:18.753Z,84.80
2019-03-13T19:47:49.045Z,84.90
2019-03-13T19:50:19.507Z,85.00
2019-03-13T19:52:49.838Z,85.50
2019-03-13T19:55:20.513Z,85.60
2019-03-13T19:57:51.056Z,86.00
2019-03-13T20:00:22.595Z,86.20
2019-03-13T20:02:59.994Z,86.60
2019-03-13T20:05:25.149Z,86.90
2019-03-13T20:07:58.580Z,87.10
2019-03-13T20:10:30.464Z,87.60
2019-03-13T20:13:01.458Z,87.90
2019-03-13T20:15:31.990Z,88.20
2019-03-13T20:18:02.625Z,88.30
2019-03-13T20:20:33.113Z,88.50
2019-03-13T20:23:03.786Z,88.80
2019-03-13T20:25:34.402Z,89.10
2019-03-13T20:28:05.054Z,89.30
2019-03-13T20:30:40.333Z,89.50
2019-03-13T20:33:09.389Z,89.90
2019-03-13T20:35:41.068Z,90.00
2019-03-13T20:38:11.485Z,89.90
2019-03-13T20:40:41.945Z,90.10
2019-03-13T20:43:14.384Z,90.30
2019-03-13T20:45:44.712Z,90.30
2019-03-13T20:48:15.171Z,90.50
2019-03-13T20:50:45.534Z,90.60
2019-03-13T20:53:15.886Z,90.60
2019-03-13T20:55:46.237Z,90.70
2019-03-13T20:58:16.657Z,90.90
2019-03-13T21:00:47.015Z,90.90
2019-03-13T21:03:17.428Z,91.00
2019-03-13T21:05:47.747Z,91.00
2019-03-13T21:08:18.091Z,91.00
2019-03-13T21:10:48.449Z,91.00
2019-03-13T21:13:19.424Z,91.10
2019-03-13T21:15:49.747Z,91.10
2019-03-13T21:18:20.078Z,91.00
2019-03-13T21:20:50.425Z,91.00
2019-03-13T21:23:20.778Z,91.00
2019-03-13T21:25:51.092Z,91.10
2019-03-13T21:28:21.452Z,90.90
2019-03-13T21:30:51.769Z,91.00
2019-03-13T21:33:23.116Z,91.10
2019-03-13T21:35:53.501Z,91.10
2019-03-13T21:38:23.855Z,91.10
2019-03-13T21:40:54.221Z,91.00
2019-03-13T21:43:25.369Z,91.00
2019-03-13T21:45:55.933Z,91.00
2019-03-13T21:48:27.690Z,91.10
2019-03-13T21:50:58.099Z,91.10
2019-03-13T21:53:28.397Z,91.00
2019-03-13T21:55:58.789Z,91.00
2019-03-13T21:58:29.139Z,91.00
2019-03-13T22:00:59.514Z,91.00
2019-03-13T22:03:32.525Z,91.00
2019-03-13T22:06:01.899Z,91.00
2019-03-13T22:08:33.301Z,91.20
2019-03-13T22:11:03.634Z,91.60
2019-03-13T22:13:35.385Z,91.30
2019-03-13T22:16:06.077Z,91.40
2019-03-13T22:18:36.495Z,91.40
2019-03-13T22:21:06.835Z,91.50
2019-03-13T22:23:38.228Z,91.60
2019-03-13T22:26:08.561Z,91.60
2019-03-13T22:28:38.871Z,91.60
2019-03-13T22:31:09.170Z,91.70
2019-03-13T22:33:39.551Z,91.80
2019-03-13T22:36:09.885Z,91.90
2019-03-13T22:38:40.771Z,92.30
2019-03-13T22:41:11.169Z,92.00
2019-03-13T22:43:44.778Z,92.10
2019-03-13T22:46:15.226Z,92.20
2019-03-13T22:48:57.354Z,92.30
2019-03-13T22:51:17.575Z,92.30
2019-03-13T22:53:47.911Z,92.40
2019-03-13T22:56:19.349Z,92.40
2019-03-13T22:58:49.718Z,92.50
2019-03-13T23:01:21.201Z,92.50
2019-03-13T23:03:52.218Z,92.50
2019-03-13T23:06:22.599Z,92.90
2019-03-13T23:08:52.947Z,92.60
2019-03-13T23:11:23.270Z,92.70
2019-03-13T23:13:53.561Z,92.70
2019-03-13T23:16:25.073Z,92.70
2019-03-13T23:18:55.491Z,92.80
2019-03-13T23:21:25.859Z,92.80
2019-03-13T23:23:57.217Z,92.80
2019-03-13T23:26:29.337Z,92.80
2019-03-13T23:28:59.723Z,92.90
2019-03-13T23:31:30.109Z,92.90
2019-03-13T23:34:00.764Z,93.00
2019-03-13T23:36:31.053Z,93.10
2019-03-13T23:39:01.377Z,93.10
2019-03-13T23:41:33.301Z,93.20
2019-03-13T23:44:03.664Z,93.20
2019-03-13T23:46:35.417Z,93.30
2019-03-13T23:49:05.751Z,93.30
2019-03-13T23:51:36.089Z,93.40
2019-03-13T23:54:06.450Z,93.40
2019-03-13T23:56:36.751Z,93.40
2019-03-13T23:59:07.122Z,93.40
